Time;durP1;ratioP1;P1;durP2;ratioP2;P2;SDS_P1;SDS_P2;PMS_P1;PMS_P2;Temp;Humidity;BMP_temperature;BMP_pressure;BME280_temperature;BME280_humidity;BME280_pressure;Samples;Min_cycle;Max_cycle;Signal;HPM_P1;HPM_P2
2022/05/03 00:01:10;;;;;;;45.30;23.03;;;;;;;;;;6235521;22;20009;-49
2022/05/03 00:03:41;;;;;;;44.45;22.73;;;;;;;;;;6234898;22;20004;-48
2022/05/03 00:06:30;;;;;;;41.70;21.42;;;;;;;;;;6236107;22;20321;-47
2022/05/03 00:09:01;;;;;;;40.60;20.88;;;;;;;;;;6233888;22;20035;-48
2022/05/03 00:11:36;;;;;;;42.58;20.80;;;;;;;;;;6234670;22;20019;-46
2022/05/03 00:14:20;;;;;;;47.85;22.60;;;;;;;;;;6233863;22;20609;-48
2022/05/03 00:16:46;;;;;;;43.55;22.27;;;;;;;;;;6233899;22;20091;-45
2022/05/03 00:19:11;;;;;;;42.30;23.08;;;;;;;;;;6236124;22;20063;-47
2022/05/03 00:21:37;;;;;;;40.20;21.77;;;;;;;;;;6234764;22;20004;-45
2022/05/03 00:24:03;;;;;;;47.33;23.48;;;;;;;;;;6236835;22;20009;-45
2022/05/03 00:26:29;;;;;;;47.83;25.20;;;;;;;;;;6234062;22;20294;-49
2022/05/03 00:28:58;;;;;;;43.67;23.55;;;;;;;;;;6237440;22;20779;-46
2022/05/03 00:31:25;;;;;;;42.40;23.63;;;;;;;;;;6233854;22;20047;-45
2022/05/03 00:33:51;;;;;;;49.08;24.80;;;;;;;;;;6236673;22;20019;-44
2022/05/03 00:36:16;;;;;;;49.05;25.38;;;;;;;;;;6233253;22;20372;-46
2022/05/03 00:38:41;;;;;;;50.80;24.30;;;;;;;;;;6236270;22;20019;-45
2022/05/03 00:41:08;;;;;;;45.47;24.83;;;;;;;;;;6233524;22;20375;-46
2022/05/03 00:43:54;;;;;;;51.00;25.33;;;;;;;;;;6236011;22;20232;-45
2022/05/03 00:46:24;;;;;;;51.20;24.95;;;;;;;;;;6233410;22;20111;-47
2022/05/03 00:49:08;;;;;;;51.85;26.50;;;;;;;;;;6238422;22;20023;-46
2022/05/03 00:51:33;;;;;;;43.17;24.10;;;;;;;;;;6236742;22;20036;-47
2022/05/03 00:54:17;;;;;;;50.30;25.05;;;;;;;;;;6235910;22;20016;-45
2022/05/03 00:56:51;;;;;;;57.38;25.98;;;;;;;;;;6237879;22;20008;-46
2022/05/03 00:59:32;;;;;;;50.33;25.08;;;;;;;;;;6234564;22;20087;-46
2022/05/03 01:01:57;;;;;;;50.10;26.00;;;;;;;;;;6237779;22;20019;-47
2022/05/03 01:04:29;;;;;;;48.63;26.17;;;;;;;;;;6234987;22;20008;-47
2022/05/03 01:07:10;;;;;;;51.65;25.48;;;;;;;;;;6235473;22;20015;-46
2022/05/03 01:09:39;;;;;;;47.67;26.85;;;;;;;;;;6237198;22;20380;-46
2022/05/03 01:12:23;;;;;;;53.28;26.50;;;;;;;;;;6234711;22;20008;-46
2022/05/03 01:14:58;;;;;;;49.00;25.65;;;;;;;;;;6237747;22;20011;-45
2022/05/03 01:17:50;;;;;;;54.95;25.10;;;;;;;;;;6235543;22;20008;-46
2022/05/03 01:20:30;;;;;;;53.25;26.88;;;;;;;;;;6176765;22;20019;-46
2022/05/03 01:23:18;;;;;;;49.97;26.25;;;;;;;;;;6237552;22;20008;-47
2022/05/03 01:26:04;;;;;;;55.80;27.17;;;;;;;;;;6234544;22;20070;-45
2022/05/03 01:28:30;;;;;;;54.33;23.85;;;;;;;;;;6235554;22;20059;-46
2022/05/03 01:31:03;;;;;;;46.20;24.38;;;;;;;;;;6236850;22;20024;-46
2022/05/03 01:33:33;;;;;;;55.78;25.85;;;;;;;;;;6236359;22;20012;-47
2022/05/03 01:36:00;;;;;;;50.88;24.95;;;;;;;;;;6236704;22;20032;-46
2022/05/03 01:38:28;;;;;;;42.65;23.73;;;;;;;;;;6236147;22;20016;-47
2022/05/03 01:41:10;;;;;;;55.90;25.52;;;;;;;;;;6236508;22;20016;-46
2022/05/03 01:43:56;;;;;;;49.65;26.02;;;;;;;;;;6236651;22;20020;-47
2022/05/03 01:46:21;;;;;;;48.55;25.85;;;;;;;;;;6235175;22;20043;-48
2022/05/03 01:51:49;;;;;;;55.80;27.35;;;;;;;;;;6236263;22;20570;-46
2022/05/03 01:54:33;;;;;;;49.55;25.77;;;;;;;;;;6234779;22;20035;-47
2022/05/03 01:57:17;;;;;;;50.22;27.35;;;;;;;;;;6234261;22;20042;-46
2022/05/03 01:59:45;;;;;;;53.88;25.85;;;;;;;;;;6236200;22;20027;-46
2022/05/03 02:02:33;;;;;;;49.75;26.08;;;;;;;;;;6235519;22;20000;-46
2022/05/03 02:05:13;;;;;;;62.38;26.50;;;;;;;;;;6216678;22;20012;-45
2022/05/03 02:07:41;;;;;;;42.53;22.85;;;;;;;;;;6236099;22;20010;-44
2022/05/03 02:10:11;;;;;;;49.33;23.85;;;;;;;;;;6234914;22;20035;-45
2022/05/03 02:12:36;;;;;;;44.47;22.27;;;;;;;;;;6236517;22;20024;-46
2022/05/03 02:15:09;;;;;;;48.90;21.55;;;;;;;;;;6235217;22;20019;-45
2022/05/03 02:17:34;;;;;;;43.70;21.85;;;;;;;;;;6236194;22;20020;-45
2022/05/03 02:19:59;;;;;;;46.73;22.37;;;;;;;;;;6227788;22;20005;-48
2022/05/03 02:22:31;;;;;;;38.80;22.20;;;;;;;;;;6235968;22;20245;-45
2022/05/03 02:24:59;;;;;;;48.13;23.65;;;;;;;;;;6208168;23;20023;-45
2022/05/03 02:27:26;;;;;;;46.42;22.85;;;;;;;;;;6233446;22;20234;-46
2022/05/03 02:29:51;;;;;;;60.22;23.73;;;;;;;;;;6234622;22;20074;-45
2022/05/03 02:32:26;;;;;;;44.45;22.40;;;;;;;;;;6236475;22;20008;-46
2022/05/03 02:34:59;;;;;;;41.60;22.17;;;;;;;;;;6234942;22;20023;-45
2022/05/03 02:37:28;;;;;;;51.13;26.15;;;;;;;;;;6235350;22;20095;-45
2022/05/03 02:40:07;;;;;;;55.83;27.67;;;;;;;;;;6233989;22;20014;-47
2022/05/03 02:42:33;;;;;;;48.25;26.00;;;;;;;;;;6235644;22;20019;-45
2022/05/03 02:44:59;;;;;;;48.38;25.42;;;;;;;;;;6236176;22;20004;-48
2022/05/03 02:47:31;;;;;;;54.05;27.27;;;;;;;;;;6234270;22;20012;-46
2022/05/03 02:49:59;;;;;;;52.50;26.90;;;;;;;;;;6235738;22;20031;-47
2022/05/03 02:52:29;;;;;;;47.05;25.30;;;;;;;;;;6233922;22;20012;-47
2022/05/03 02:55:03;;;;;;;48.03;25.27;;;;;;;;;;6236509;22;20051;-46
2022/05/03 02:57:47;;;;;;;47.88;23.30;;;;;;;;;;6235446;22;20490;-45
2022/05/03 03:03:16;;;;;;;47.00;24.98;;;;;;;;;;6236220;22;20046;-45
2022/05/03 03:05:42;;;;;;;46.42;23.35;;;;;;;;;;6235518;22;20012;-46
2022/05/03 03:08:10;;;;;;;45.05;22.98;;;;;;;;;;6234270;22;20031;-45
2022/05/03 03:10:46;;;;;;;44.50;23.17;;;;;;;;;;6234250;22;20024;-48
2022/05/03 03:13:25;;;;;;;44.22;24.02;;;;;;;;;;6234970;22;20050;-46
2022/05/03 03:15:51;;;;;;;43.25;23.25;;;;;;;;;;6235379;22;20036;-45
2022/05/03 03:18:18;;;;;;;45.70;25.70;;;;;;;;;;6233879;22;20015;-47
2022/05/03 03:20:45;;;;;;;50.47;25.08;;;;;;;;;;6235900;22;19996;-44
2022/05/03 03:23:21;;;;;;;54.95;27.30;;;;;;;;;;6234465;22;20013;-45
2022/05/03 03:25:47;;;;;;;44.42;23.65;;;;;;;;;;6233721;22;20008;-46
2022/05/03 03:28:13;;;;;;;45.83;24.23;;;;;;;;;;6235011;22;20016;-46
2022/05/03 03:30:40;;;;;;;45.70;25.35;;;;;;;;;;6234682;22;20092;-45
2022/05/03 03:33:06;;;;;;;44.75;24.73;;;;;;;;;;6232994;22;20533;-44
2022/05/03 03:35:33;;;;;;;48.80;23.80;;;;;;;;;;6235079;22;20054;-46
2022/05/03 03:38:01;;;;;;;44.40;22.85;;;;;;;;;;6235200;22;20008;-48
2022/05/03 03:40:26;;;;;;;49.15;25.98;;;;;;;;;;6232000;22;20012;-45
2022/05/03 03:42:51;;;;;;;53.25;26.05;;;;;;;;;;6232926;22;20612;-46
2022/05/03 03:45:17;;;;;;;46.33;24.70;;;;;;;;;;6235777;22;20004;-46
2022/05/03 03:47:43;;;;;;;54.78;26.27;;;;;;;;;;6233281;22;20054;-46
2022/05/03 03:50:09;;;;;;;45.95;25.67;;;;;;;;;;6234094;22;20424;-46
2022/05/03 03:52:35;;;;;;;50.42;27.05;;;;;;;;;;6233823;22;20679;-45
2022/05/03 03:55:01;;;;;;;48.97;26.10;;;;;;;;;;6235929;22;20008;-45
2022/05/03 03:57:27;;;;;;;52.83;25.75;;;;;;;;;;6233746;22;20512;-48
2022/05/03 03:59:52;;;;;;;59.63;27.55;;;;;;;;;;6236070;22;20008;-47
2022/05/03 04:02:19;;;;;;;53.97;26.70;;;;;;;;;;6234796;22;20012;-45
2022/05/03 04:04:44;;;;;;;57.22;27.73;;;;;;;;;;6236992;22;20000;-44
2022/05/03 04:07:10;;;;;;;58.22;29.25;;;;;;;;;;6235109;22;20042;-45
2022/05/03 04:09:35;;;;;;;51.10;28.08;;;;;;;;;;6234413;22;20020;-45
2022/05/03 04:12:02;;;;;;;54.83;27.05;;;;;;;;;;6235467;22;20749;-46
2022/05/03 04:14:28;;;;;;;52.95;27.10;;;;;;;;;;6234579;22;20016;-46
2022/05/03 04:16:53;;;;;;;58.13;29.08;;;;;;;;;;6235542;22;20208;-44
2022/05/03 04:19:18;;;;;;;51.38;28.02;;;;;;;;;;6235784;22;20008;-45
2022/05/03 04:21:45;;;;;;;60.40;29.15;;;;;;;;;;6236473;22;20044;-48
2022/05/03 04:24:10;;;;;;;54.33;28.20;;;;;;;;;;6237391;22;20019;-47
2022/05/03 04:26:36;;;;;;;59.03;28.63;;;;;;;;;;6236029;22;20016;-48
2022/05/03 04:29:02;;;;;;;65.32;31.20;;;;;;;;;;6236898;22;20043;-48
2022/05/03 04:31:27;;;;;;;62.92;31.67;;;;;;;;;;6234479;22;20367;-45
2022/05/03 04:33:53;;;;;;;55.80;28.27;;;;;;;;;;6237805;22;20015;-46
2022/05/03 04:36:18;;;;;;;62.47;30.10;;;;;;;;;;6207512;22;20016;-47
2022/05/03 04:38:44;;;;;;;53.97;28.77;;;;;;;;;;6237665;22;20016;-46
2022/05/03 04:41:09;;;;;;;58.03;29.00;;;;;;;;;;6235491;22;20011;-46
2022/05/03 04:43:34;;;;;;;59.83;30.20;;;;;;;;;;6233936;22;20011;-47
2022/05/03 04:46:00;;;;;;;60.88;30.10;;;;;;;;;;6235255;22;20078;-47
2022/05/03 04:48:25;;;;;;;60.33;29.88;;;;;;;;;;6209833;22;20020;-46
2022/05/03 04:50:50;;;;;;;58.03;28.77;;;;;;;;;;6233228;22;20020;-44
2022/05/03 04:53:16;;;;;;;59.80;29.27;;;;;;;;;;6237043;22;20008;-46
2022/05/03 04:55:41;;;;;;;66.85;30.70;;;;;;;;;;6235724;22;20247;-46
2022/05/03 04:58:07;;;;;;;64.72;31.10;;;;;;;;;;6237196;22;20000;-44
2022/05/03 05:00:32;;;;;;;59.28;29.05;;;;;;;;;;6234930;22;20044;-44
2022/05/03 05:02:57;;;;;;;63.35;31.95;;;;;;;;;;6238436;22;20521;-46
2022/05/03 05:05:22;;;;;;;66.10;32.00;;;;;;;;;;6234728;22;20008;-46
2022/05/03 05:07:48;;;;;;;71.20;31.98;;;;;;;;;;6238160;22;20071;-46
2022/05/03 05:10:28;;;;;;;60.67;29.17;;;;;;;;;;6234531;22;20024;-45
2022/05/03 05:12:54;;;;;;;65.00;30.17;;;;;;;;;;6236477;22;20012;-47
2022/05/03 05:15:21;;;;;;;62.72;30.70;;;;;;;;;;6235839;22;20012;-46
2022/05/03 05:17:46;;;;;;;65.18;31.42;;;;;;;;;;6236852;22;20032;-45
2022/05/03 05:20:11;;;;;;;66.00;30.27;;;;;;;;;;6235535;22;20090;-45
2022/05/03 05:22:37;;;;;;;62.35;30.90;;;;;;;;;;6236190;22;20309;-46
2022/05/03 05:25:02;;;;;;;74.53;32.13;;;;;;;;;;6236638;22;20038;-47
2022/05/03 05:27:28;;;;;;;72.47;32.33;;;;;;;;;;6235219;22;20009;-45
2022/05/03 05:29:53;;;;;;;74.32;31.50;;;;;;;;;;6235839;22;20020;-46
2022/05/03 05:32:18;;;;;;;69.47;31.85;;;;;;;;;;6234253;22;20046;-45
2022/05/03 05:34:44;;;;;;;66.53;30.08;;;;;;;;;;6237318;22;20008;-47
2022/05/03 05:37:09;;;;;;;63.45;30.98;;;;;;;;;;6236196;22;20024;-46
2022/05/03 05:39:34;;;;;;;61.38;28.52;;;;;;;;;;6236184;22;20016;-45
2022/05/03 05:42:01;;;;;;;61.83;28.15;;;;;;;;;;6209972;23;20015;-46
2022/05/03 05:44:27;;;;;;;61.40;30.58;;;;;;;;;;6236104;22;20627;-48
2022/05/03 05:46:52;;;;;;;75.85;30.40;;;;;;;;;;6236888;22;20004;-45
2022/05/03 05:49:18;;;;;;;57.38;28.15;;;;;;;;;;6207508;22;20024;-47
2022/05/03 05:51:45;;;;;;;61.58;29.13;;;;;;;;;;6236668;22;20020;-46
2022/05/03 05:54:10;;;;;;;69.05;29.98;;;;;;;;;;6235412;22;20008;-45
2022/05/03 05:56:35;;;;;;;74.57;30.75;;;;;;;;;;6236711;22;20036;-45
2022/05/03 05:59:01;;;;;;;67.60;29.20;;;;;;;;;;6236285;22;20012;-45
2022/05/03 06:01:35;;;;;;;62.97;27.52;;;;;;;;;;6209154;22;20240;-45
2022/05/03 06:04:01;;;;;;;61.25;28.50;;;;;;;;;;6236715;22;20012;-45
2022/05/03 06:06:26;;;;;;;68.90;28.95;;;;;;;;;;6236150;22;20053;-45
2022/05/03 06:08:51;;;;;;;76.68;30.20;;;;;;;;;;6235623;22;20115;-45
2022/05/03 06:11:16;;;;;;;71.20;29.15;;;;;;;;;;6234920;22;20823;-45
2022/05/03 06:13:42;;;;;;;59.88;29.05;;;;;;;;;;6236261;22;20355;-45
2022/05/03 06:16:10;;;;;;;59.38;29.00;;;;;;;;;;6236893;22;20008;-45
2022/05/03 06:18:36;;;;;;;63.80;30.73;;;;;;;;;;6234879;22;20012;-45
2022/05/03 06:21:04;;;;;;;66.50;28.90;;;;;;;;;;6235896;22;20289;-46
2022/05/03 06:23:30;;;;;;;66.63;29.15;;;;;;;;;;6235798;22;20022;-47
2022/05/03 06:25:55;;;;;;;62.67;28.67;;;;;;;;;;6235621;22;20012;-45
2022/05/03 06:28:20;;;;;;;64.50;29.00;;;;;;;;;;6235126;22;20028;-48
2022/05/03 06:30:46;;;;;;;66.35;28.90;;;;;;;;;;6234885;22;20024;-48
2022/05/03 06:33:11;;;;;;;70.68;31.73;;;;;;;;;;6236701;22;20008;-47
2022/05/03 06:35:36;;;;;;;68.65;30.05;;;;;;;;;;6233939;22;20004;-47
2022/05/03 06:38:02;;;;;;;72.85;29.85;;;;;;;;;;6236653;22;20040;-49
2022/05/03 06:40:27;;;;;;;75.55;29.52;;;;;;;;;;6233596;22;20016;-46
2022/05/03 06:42:54;;;;;;;63.15;27.88;;;;;;;;;;6236423;22;20050;-45
2022/05/03 06:45:19;;;;;;;60.95;29.15;;;;;;;;;;6233036;22;20014;-45
2022/05/03 06:47:45;;;;;;;69.07;30.27;;;;;;;;;;6236521;22;20016;-46
2022/05/03 06:50:10;;;;;;;60.78;29.40;;;;;;;;;;6234836;22;20024;-47
2022/05/03 06:52:35;;;;;;;61.92;28.00;;;;;;;;;;6235338;22;20012;-47
2022/05/03 06:55:01;;;;;;;71.28;28.00;;;;;;;;;;6236288;22;20011;-46
2022/05/03 06:57:26;;;;;;;60.13;26.75;;;;;;;;;;6235196;22;20635;-46
2022/05/03 06:59:51;;;;;;;65.68;28.20;;;;;;;;;;6234344;22;20067;-45
2022/05/03 07:02:16;;;;;;;66.47;27.73;;;;;;;;;;6232539;22;20000;-45
2022/05/03 07:04:46;;;;;;;66.80;29.50;;;;;;;;;;6233726;22;20073;-48
2022/05/03 07:07:11;;;;;;;75.53;28.80;;;;;;;;;;6235511;22;20008;-45
2022/05/03 07:09:37;;;;;;;71.72;31.48;;;;;;;;;;6231073;22;20023;-45
2022/05/03 07:12:02;;;;;;;73.18;31.10;;;;;;;;;;6208187;23;20012;-46
2022/05/03 07:14:27;;;;;;;69.25;28.27;;;;;;;;;;6232877;22;20199;-44
2022/05/03 07:16:53;;;;;;;85.00;30.48;;;;;;;;;;6235987;22;20695;-45
2022/05/03 07:24:46;;;;;;;81.72;31.65;;;;;;;;;;6235871;22;20020;-45
2022/05/03 07:27:13;;;;;;;77.78;31.10;;;;;;;;;;6232466;22;20008;-47
2022/05/03 07:29:38;;;;;;;71.97;28.58;;;;;;;;;;6207446;23;20026;-47
2022/05/03 07:32:04;;;;;;;66.45;28.27;;;;;;;;;;6235879;22;20405;-46
2022/05/03 07:34:29;;;;;;;75.40;28.02;;;;;;;;;;6234085;22;20008;-45
2022/05/03 07:36:54;;;;;;;64.55;29.13;;;;;;;;;;6236089;22;20020;-45
2022/05/03 07:39:19;;;;;;;66.32;26.88;;;;;;;;;;6233178;22;20053;-46
2022/05/03 07:41:45;;;;;;;58.40;25.95;;;;;;;;;;6235413;22;20022;-48
2022/05/03 07:44:10;;;;;;;57.60;27.80;;;;;;;;;;6234585;22;20450;-45
2022/05/03 07:46:35;;;;;;;60.97;26.20;;;;;;;;;;6231716;22;20015;-47
2022/05/03 07:49:00;;;;;;;57.30;24.55;;;;;;;;;;6232405;22;20012;-47
2022/05/03 07:51:26;;;;;;;63.35;28.45;;;;;;;;;;6232753;22;20035;-46
2022/05/03 07:53:51;;;;;;;64.40;28.30;;;;;;;;;;6235481;22;20067;-47
2022/05/03 07:56:16;;;;;;;62.83;26.73;;;;;;;;;;6206569;22;20008;-47
2022/05/03 07:58:42;;;;;;;66.25;27.67;;;;;;;;;;6233436;22;20005;-47
2022/05/03 08:01:07;;;;;;;63.42;26.55;;;;;;;;;;6235185;22;20012;-47
2022/05/03 08:03:32;;;;;;;64.35;29.52;;;;;;;;;;6234111;22;20391;-47
2022/05/03 08:05:58;;;;;;;65.78;30.33;;;;;;;;;;6235682;22;20024;-48
2022/05/03 08:08:23;;;;;;;70.45;28.65;;;;;;;;;;6232586;22;20657;-48
2022/05/03 08:10:49;;;;;;;60.15;27.42;;;;;;;;;;6234482;22;20012;-47
2022/05/03 08:13:14;;;;;;;56.78;25.15;;;;;;;;;;6231832;22;20038;-49
2022/05/03 08:15:39;;;;;;;59.50;26.00;;;;;;;;;;6229340;22;20592;-47
2022/05/03 08:18:05;;;;;;;60.15;27.35;;;;;;;;;;6226803;22;20018;-46
2022/05/03 08:20:30;;;;;;;54.40;26.40;;;;;;;;;;6235283;22;20651;-45
2022/05/03 08:22:55;;;;;;;52.00;24.48;;;;;;;;;;6208848;23;20019;-45
2022/05/03 08:25:21;;;;;;;54.10;24.20;;;;;;;;;;6235115;22;20008;-46
2022/05/03 08:27:46;;;;;;;50.00;24.85;;;;;;;;;;6236191;22;20012;-46
2022/05/03 08:30:12;;;;;;;45.45;23.33;;;;;;;;;;6238106;22;20026;-46
2022/05/03 08:32:37;;;;;;;53.67;25.75;;;;;;;;;;6235531;22;20263;-46
2022/05/03 08:35:02;;;;;;;55.35;24.08;;;;;;;;;;6239885;22;20023;-47
2022/05/03 08:42:56;;;;;;;42.70;21.63;;;;;;;;;;6235705;22;20019;-47
2022/05/03 08:45:21;;;;;;;42.00;22.02;;;;;;;;;;6238043;22;20258;-45
2022/05/03 08:47:47;;;;;;;40.15;18.83;;;;;;;;;;6236262;22;20019;-45
2022/05/03 08:50:13;;;;;;;42.13;21.80;;;;;;;;;;6237935;22;20024;-45
2022/05/03 08:52:54;;;;;;;45.15;21.48;;;;;;;;;;6237539;22;20016;-47
2022/05/03 08:55:20;;;;;;;39.83;21.13;;;;;;;;;;6237200;22;20050;-45
2022/05/03 08:57:45;;;;;;;45.20;21.48;;;;;;;;;;6239040;22;20782;-45
2022/05/03 09:00:12;;;;;;;39.88;21.75;;;;;;;;;;6238137;22;20015;-46
2022/05/03 09:02:51;;;;;;;37.47;19.30;;;;;;;;;;6238317;22;20083;-46
2022/05/03 09:05:17;;;;;;;35.60;17.17;;;;;;;;;;6236388;22;20012;-45
2022/05/03 09:07:49;;;;;;;29.75;16.60;;;;;;;;;;6236919;22;20107;-47
2022/05/03 09:10:16;;;;;;;28.33;15.68;;;;;;;;;;6207525;22;20023;-45
2022/05/03 09:12:44;;;;;;;26.80;13.80;;;;;;;;;;6210003;23;20004;-46
2022/05/03 09:15:09;;;;;;;25.63;13.57;;;;;;;;;;6233812;22;20026;-46
2022/05/03 09:17:38;;;;;;;24.60;14.20;;;;;;;;;;6235673;22;20024;-46
2022/05/03 09:25:52;;;;;;;32.63;15.02;;;;;;;;;;6236478;22;20536;-47
2022/05/03 09:28:22;;;;;;;25.05;14.32;;;;;;;;;;6234387;22;20016;-45
2022/05/03 09:30:50;;;;;;;32.17;16.95;;;;;;;;;;6224465;22;20023;-46
2022/05/03 09:33:17;;;;;;;30.52;17.30;;;;;;;;;;6227508;22;20004;-47
2022/05/03 09:35:42;;;;;;;31.25;18.45;;;;;;;;;;6234040;22;20012;-47
2022/05/03 09:38:07;;;;;;;33.42;17.92;;;;;;;;;;6237348;22;20030;-46
2022/05/03 09:40:36;;;;;;;31.90;17.65;;;;;;;;;;6235083;22;23105;-45
2022/05/03 09:43:05;;;;;;;42.70;21.55;;;;;;;;;;6210349;23;20008;-46
2022/05/03 09:45:30;;;;;;;45.17;21.63;;;;;;;;;;6235602;22;20067;-47
2022/05/03 09:47:57;;;;;;;37.38;20.88;;;;;;;;;;6236523;22;20015;-49
2022/05/03 09:50:41;;;;;;;53.33;23.42;;;;;;;;;;6234123;22;20075;-47
2022/05/03 09:53:17;;;;;;;44.42;21.52;;;;;;;;;;6236510;22;20074;-47
2022/05/03 09:55:45;;;;;;;45.90;22.17;;;;;;;;;;6235391;22;20102;-46
2022/05/03 09:58:11;;;;;;;44.33;23.27;;;;;;;;;;6236948;22;20069;-45
2022/05/03 10:00:38;;;;;;;55.30;25.98;;;;;;;;;;6235209;22;20012;-47
2022/05/03 10:03:06;;;;;;;45.72;22.67;;;;;;;;;;6235781;22;20004;-47
2022/05/03 10:05:33;;;;;;;45.78;22.27;;;;;;;;;;6235101;22;20026;-47
2022/05/03 10:07:59;;;;;;;49.33;22.27;;;;;;;;;;6236786;22;20008;-47
2022/05/03 10:10:25;;;;;;;47.30;22.90;;;;;;;;;;6207990;22;20705;-47
2022/05/03 10:12:51;;;;;;;38.70;21.08;;;;;;;;;;6236955;22;20008;-44
2022/05/03 10:20:36;;;;;;;39.97;21.42;;;;;;;;;;6228320;22;20830;-47
2022/05/03 10:20:57;;;;;;;41.70;21.70;;;;;;;;;;6233715;22;20183;-45
2022/05/03 10:23:23;;;;;;;40.70;20.80;;;;;;;;;;6235453;22;20020;-46
2022/05/03 10:25:52;;;;;;;37.25;20.88;;;;;;;;;;6236730;22;20047;-45
2022/05/03 10:28:17;;;;;;;43.40;22.50;;;;;;;;;;6234763;22;20008;-47
2022/05/03 10:31:08;;;;;;;49.75;22.55;;;;;;;;;;6234600;22;20067;-45
2022/05/03 10:33:35;;;;;;;40.58;23.08;;;;;;;;;;6228719;22;20027;-45
2022/05/03 10:36:01;;;;;;;38.58;20.13;;;;;;;;;;6234510;22;20012;-46
2022/05/03 10:38:46;;;;;;;46.63;23.45;;;;;;;;;;6234998;22;20043;-45
2022/05/03 10:41:22;;;;;;;36.30;19.98;;;;;;;;;;6235642;22;20020;-46
2022/05/03 10:43:47;;;;;;;38.17;20.75;;;;;;;;;;6206459;23;20008;-48
2022/05/03 10:46:13;;;;;;;42.78;21.58;;;;;;;;;;6236475;22;20027;-46
2022/05/03 10:48:41;;;;;;;45.90;21.95;;;;;;;;;;6234060;22;20016;-48
2022/05/03 10:51:11;;;;;;;41.88;20.95;;;;;;;;;;6235283;22;20024;-46
2022/05/03 10:53:37;;;;;;;45.80;22.52;;;;;;;;;;6234708;22;20019;-45
2022/05/03 10:56:07;;;;;;;47.05;22.73;;;;;;;;;;6236714;22;20177;-45
2022/05/03 10:58:33;;;;;;;47.85;23.70;;;;;;;;;;6234725;22;20031;-45
2022/05/03 11:01:20;;;;;;;52.00;23.52;;;;;;;;;;6236257;22;20068;-47
2022/05/03 11:03:51;;;;;;;46.97;23.17;;;;;;;;;;6233391;22;20063;-45
2022/05/03 11:06:23;;;;;;;48.05;22.05;;;;;;;;;;6234162;22;20081;-48
2022/05/03 11:11:53;;;;;;;48.70;22.95;;;;;;;;;;6233998;22;20242;-46
2022/05/03 11:16:47;;;;;;;49.22;22.33;;;;;;;;;;6235329;22;20019;-47
2022/05/03 11:19:20;;;;;;;49.67;22.98;;;;;;;;;;6209052;23;20016;-44
2022/05/03 11:21:46;;;;;;;51.78;24.30;;;;;;;;;;6206981;23;20458;-46
2022/05/03 11:24:18;;;;;;;42.88;22.50;;;;;;;;;;6231866;22;20008;-48
2022/05/03 11:26:44;;;;;;;43.17;21.95;;;;;;;;;;6235846;22;20023;-46
2022/05/03 11:29:11;;;;;;;45.97;23.00;;;;;;;;;;6233626;22;20008;-45
2022/05/03 11:31:37;;;;;;;41.28;22.65;;;;;;;;;;6235437;22;20039;-46
2022/05/03 11:34:03;;;;;;;50.50;24.85;;;;;;;;;;6234351;22;20642;-46
2022/05/03 11:36:29;;;;;;;42.60;22.67;;;;;;;;;;6235635;22;20095;-47
2022/05/03 11:38:55;;;;;;;47.45;24.33;;;;;;;;;;6234710;22;20008;-49
2022/05/03 11:41:22;;;;;;;54.13;24.08;;;;;;;;;;6234976;22;20004;-45
2022/05/03 11:43:47;;;;;;;43.50;22.17;;;;;;;;;;6234837;22;20403;-46
2022/05/03 11:46:14;;;;;;;42.33;21.85;;;;;;;;;;6236235;22;20019;-45
2022/05/03 11:48:40;;;;;;;43.85;22.52;;;;;;;;;;6207143;23;20015;-47
2022/05/03 11:56:34;;;;;;;40.80;23.13;;;;;;;;;;6232665;22;20075;-47
2022/05/03 11:59:00;;;;;;;42.47;22.13;;;;;;;;;;6231724;22;20013;-46
2022/05/03 12:01:31;;;;;;;41.78;21.00;;;;;;;;;;6235016;22;20035;-46
2022/05/03 12:03:58;;;;;;;40.33;21.58;;;;;;;;;;6228426;22;20012;-45
2022/05/03 12:06:32;;;;;;;45.85;22.48;;;;;;;;;;6229924;22;20016;-45
2022/05/03 12:08:57;;;;;;;44.90;23.23;;;;;;;;;;6232258;22;20011;-46
2022/05/03 12:11:24;;;;;;;43.90;21.67;;;;;;;;;;6229348;22;20023;-44
2022/05/03 12:13:49;;;;;;;46.00;22.15;;;;;;;;;;6232403;22;20011;-47
2022/05/03 12:16:19;;;;;;;42.00;23.50;;;;;;;;;;6229174;22;20008;-47
2022/05/03 12:18:48;;;;;;;43.35;23.08;;;;;;;;;;6232272;22;20099;-46
2022/05/03 12:21:17;;;;;;;44.20;22.85;;;;;;;;;;6228997;22;20023;-51
2022/05/03 12:23:47;;;;;;;42.35;23.17;;;;;;;;;;6232414;22;20019;-46
2022/05/03 12:26:17;;;;;;;47.45;22.48;;;;;;;;;;6203221;23;20016;-46
2022/05/03 12:28:44;;;;;;;40.78;21.50;;;;;;;;;;6230457;22;20095;-46
2022/05/03 12:31:10;;;;;;;42.80;21.75;;;;;;;;;;6227807;22;20016;-47
2022/05/03 12:33:44;;;;;;;44.03;23.63;;;;;;;;;;6227699;22;20008;-49
2022/05/03 12:36:10;;;;;;;38.10;22.10;;;;;;;;;;6229223;22;20001;-47
2022/05/03 12:38:49;;;;;;;36.33;21.60;;;;;;;;;;6229125;22;20171;-46
2022/05/03 12:41:30;;;;;;;39.20;22.13;;;;;;;;;;6230757;22;20027;-46
2022/05/03 12:44:02;;;;;;;35.88;20.58;;;;;;;;;;6228410;22;20418;-48
2022/05/03 12:46:28;;;;;;;39.30;20.10;;;;;;;;;;6230968;22;20100;-47
2022/05/03 12:48:54;;;;;;;39.72;21.67;;;;;;;;;;6232275;22;20008;-46
2022/05/03 12:51:19;;;;;;;35.45;19.55;;;;;;;;;;6231056;22;20090;-45
2022/05/03 12:53:46;;;;;;;36.55;19.73;;;;;;;;;;6234495;22;20278;-46
2022/05/03 12:58:58;;;;;;;41.10;22.30;;;;;;;;;;6234117;22;20023;-46
2022/05/03 13:01:23;;;;;;;38.38;19.55;;;;;;;;;;6225536;22;20020;-45
2022/05/03 13:03:49;;;;;;;38.88;20.98;;;;;;;;;;6228820;22;20050;-46
2022/05/03 13:06:14;;;;;;;40.65;21.00;;;;;;;;;;6230198;22;20011;-46
2022/05/03 13:08:40;;;;;;;39.83;20.27;;;;;;;;;;6234802;22;20016;-45
2022/05/03 13:11:05;;;;;;;33.88;20.10;;;;;;;;;;6232915;22;20017;-46
2022/05/03 13:13:31;;;;;;;36.28;19.40;;;;;;;;;;6205948;22;20012;-46
2022/05/03 13:15:56;;;;;;;41.50;22.27;;;;;;;;;;6237081;22;20121;-45
2022/05/03 13:18:21;;;;;;;46.13;22.10;;;;;;;;;;6233597;22;20157;-47
2022/05/03 13:20:47;;;;;;;39.15;21.48;;;;;;;;;;6236747;22;20035;-45
2022/05/03 13:23:12;;;;;;;40.92;21.13;;;;;;;;;;6234703;22;20012;-46
2022/05/03 13:25:37;;;;;;;33.63;19.55;;;;;;;;;;6236202;22;20077;-45
2022/05/03 13:28:05;;;;;;;36.72;19.95;;;;;;;;;;6235845;22;20023;-45
2022/05/03 13:30:31;;;;;;;37.45;20.63;;;;;;;;;;6236942;22;20024;-50
2022/05/03 13:32:56;;;;;;;39.15;20.17;;;;;;;;;;6234575;22;20008;-45
2022/05/03 13:40:51;;;;;;;46.35;20.15;;;;;;;;;;6235225;22;20080;-46
2022/05/03 13:43:17;;;;;;;35.20;20.15;;;;;;;;;;6235507;22;20012;-47
2022/05/03 13:45:42;;;;;;;36.47;20.48;;;;;;;;;;6234360;22;20018;-49
2022/05/03 13:48:07;;;;;;;34.58;19.50;;;;;;;;;;6236446;22;20035;-45
2022/05/03 13:50:33;;;;;;;39.40;20.30;;;;;;;;;;6201576;22;20708;-47
2022/05/03 13:52:58;;;;;;;37.20;19.90;;;;;;;;;;6202394;22;20588;-47
2022/05/03 13:55:23;;;;;;;34.30;18.73;;;;;;;;;;6203172;22;19997;-45
2022/05/03 13:57:49;;;;;;;38.05;19.38;;;;;;;;;;6198711;22;20012;-45
2022/05/03 14:00:14;;;;;;;28.98;17.83;;;;;;;;;;6205210;22;20191;-47
2022/05/03 14:02:43;;;;;;;40.70;20.10;;;;;;;;;;6205352;22;20496;-49
2022/05/03 14:05:09;;;;;;;30.10;18.35;;;;;;;;;;6204376;22;20017;-47
2022/05/03 14:07:35;;;;;;;30.27;18.55;;;;;;;;;;6203467;22;20009;-46
2022/05/03 14:10:00;;;;;;;33.40;18.95;;;;;;;;;;6203858;22;20041;-47
2022/05/03 14:12:25;;;;;;;31.98;18.33;;;;;;;;;;6205387;22;20017;-46
2022/05/03 14:14:51;;;;;;;36.22;19.27;;;;;;;;;;6203640;22;20015;-47
2022/05/03 14:17:16;;;;;;;32.35;18.50;;;;;;;;;;6205553;22;20023;-48
2022/05/03 14:19:41;;;;;;;34.63;17.90;;;;;;;;;;6203526;22;20009;-48
2022/05/03 14:22:07;;;;;;;28.67;16.15;;;;;;;;;;6206405;22;20035;-47
2022/05/03 14:24:32;;;;;;;28.20;16.15;;;;;;;;;;6202882;22;20024;-46
2022/05/03 14:26:58;;;;;;;29.63;17.75;;;;;;;;;;6206062;22;20028;-47
2022/05/03 14:29:23;;;;;;;29.67;18.13;;;;;;;;;;6201825;22;20012;-47
2022/05/03 14:31:50;;;;;;;26.08;17.05;;;;;;;;;;6203394;23;20020;-47
2022/05/03 14:34:15;;;;;;;26.60;17.88;;;;;;;;;;6203480;22;20039;-48
2022/05/03 14:36:41;;;;;;;32.58;18.05;;;;;;;;;;6203949;22;20013;-46
2022/05/03 14:39:06;;;;;;;28.92;17.90;;;;;;;;;;6199336;23;20004;-45
2022/05/03 14:41:32;;;;;;;30.48;16.95;;;;;;;;;;6202659;22;20017;-48
2022/05/03 14:43:57;;;;;;;30.60;17.65;;;;;;;;;;6203152;22;20043;-48
2022/05/03 14:46:22;;;;;;;30.05;17.40;;;;;;;;;;6196270;22;20016;-48
2022/05/03 14:48:48;;;;;;;25.55;16.17;;;;;;;;;;6201333;22;20071;-50
2022/05/03 14:51:13;;;;;;;31.67;16.67;;;;;;;;;;6214287;22;20020;-50
2022/05/03 14:53:38;;;;;;;25.27;15.82;;;;;;;;;;6206357;23;20095;-48
2022/05/03 15:04:15;;;;;;;29.80;17.10;;;;;;;;;;6233456;22;20070;-48
2022/05/03 15:06:41;;;;;;;30.08;18.63;;;;;;;;;;6233530;22;20382;-46
2022/05/03 15:09:10;;;;;;;28.50;17.55;;;;;;;;;;6205754;23;20357;-47
2022/05/03 15:11:35;;;;;;;27.40;17.03;;;;;;;;;;6232098;22;20005;-47
2022/05/03 15:14:01;;;;;;;29.17;16.35;;;;;;;;;;6235033;22;20012;-49